State Park, South Carolina
Current Conditions -  °F | °C
As of 10:01 AM on Wednesday 26 Nov 2014 (Local Time) from KCUB Reporting Station
Heavy Rain Heavy Rain  
Wind Chill: 45°   Ceiling: 1100
Heat Index: 49°   Visibility: 2mi
Dew Point: 46°   Wind: 9mph
Humidity: 90%   Direction: 300°WNW
Pressure: 30.03"   Gusts: 18mph
Location:  34.09°N, 80.97°W
Report Text: KCUB 261501Z AUTO 30008G16KT 2SM +RA BR SCT007 BKN011 OVC037 09/08 A3003 RMK AO2 P0002 T00940078
Loading
Personal Weather Stations






























Interactive Weather Map New forecast layout! Learn more

10-Day Weather Forecast

Advertisements
Track Severe Weather on mobile